»·PEaware :: N326LP KWHP-KBFL

N326LP :: KWHP-KBFL

FLIGHT INFORMATION

Flight Status: Arrived
Operator: Privately registered:
United States
More flights under this callsign
Pilot: Jon S. (43478)
Aircraft: CESSNA 172 SKYHAWK
(C172)
More flights by this aircraft type
Origin: KWHP Whiteman
United States
Destination: KBFL Meadows
United States
More flights between these airports :: More routes between these airports
Route:
File this flight plan on PilotEdge
Remarks:
Altitude:
(Current/Filed)
6,500ft
Speed:
(Current/Filed)
0kts
Departed: 01-Oct-23 01:13 PM
Arrived: 01-Oct-23 01:55 PM
Distance/Time
Traveled:
77nm/0:42
Distance/Time
To Go:
Arrived

Flight Plot

Page will automatically refresh every two minutes.


Map Options




Map Legend


Flown Route
Filed Route
Departure Airport
Arrival Airport
Navaid (VOR, NDB)
Fix

Horizontal Profiles

Position Reports

Time Latitude Longitude Heading Altitude Ground
Speed
01-Oct-23 13:08 34.255591 -118.408915 158 969ft 0kts
01-Oct-23 13:09 34.255818 -118.409072 296 970ft 6kts
01-Oct-23 13:10 34.263693 -118.417418 275 1000ft 0kts
01-Oct-23 13:11 34.263693 -118.417418 275 1000ft 0kts
01-Oct-23 13:12 34.263693 -118.417418 275 1000ft 0kts
01-Oct-23 13:13 34.258397 -118.412388 139 1142ft 66kts
01-Oct-23 13:14 34.261006 -118.400581 331 1938ft 84kts
01-Oct-23 13:15 34.280374 -118.417710 321 2697ft 85kts
01-Oct-23 13:16 34.298451 -118.434453 316 3491ft 81kts
01-Oct-23 13:17 34.318635 -118.454753 320 4124ft 99kts
01-Oct-23 13:18 34.341926 -118.473404 324 4828ft 100kts
01-Oct-23 13:19 34.365334 -118.491118 324 5516ft 98kts
01-Oct-23 13:20 34.387785 -118.507795 324 6196ft 91kts
01-Oct-23 13:21 34.411732 -118.525727 324 6450ft 115kts
01-Oct-23 13:22 34.440194 -118.547641 324 6467ft 123kts
01-Oct-23 13:23 34.469273 -118.570194 324 6467ft 125kts
01-Oct-23 13:24 34.498681 -118.593069 324 6464ft 126kts
01-Oct-23 13:25 34.528339 -118.616219 324 6461ft 126kts
01-Oct-23 13:26 34.557943 -118.639497 324 6459ft 127kts
01-Oct-23 13:27 34.587663 -118.663383 324 6458ft 129kts
01-Oct-23 13:28 34.617686 -118.688036 324 6460ft 130kts
01-Oct-23 13:29 34.647757 -118.712658 324 6462ft 131kts
01-Oct-23 13:30 34.678121 -118.737464 324 6465ft 131kts
01-Oct-23 13:31 34.709325 -118.760880 329 6468ft 132kts
01-Oct-23 13:32 34.741514 -118.782727 329 6471ft 132kts
01-Oct-23 13:32 34.769377 -118.798422 334 6475ft 132kts
01-Oct-23 13:34 34.808630 -118.820184 334 6480ft 132kts
01-Oct-23 13:35 34.842153 -118.838775 334 6485ft 132kts
01-Oct-23 13:36 34.875799 -118.857433 334 6490ft 132kts
01-Oct-23 13:36 34.903809 -118.873121 334 6495ft 132kts
01-Oct-23 13:37 34.936936 -118.892414 334 6501ft 132kts
01-Oct-23 13:38 34.970685 -118.909620 344 6175ft 131kts
01-Oct-23 13:40 35.011010 -118.925449 344 5597ft 129kts
01-Oct-23 13:41 35.045300 -118.938836 344 5093ft 127kts
01-Oct-23 13:41 35.075965 -118.947629 350 4642ft 125kts
01-Oct-23 13:42 35.111239 -118.955720 350 4395ft 120kts
01-Oct-23 13:43 35.143828 -118.962954 350 4392ft 118kts
01-Oct-23 13:44 35.176183 -118.969190 356 4167ft 120kts
01-Oct-23 13:45 35.207845 -118.971562 354 3842ft 116kts
01-Oct-23 13:46 35.239454 -118.974249 357 3681ft 114kts
01-Oct-23 13:47 35.270878 -118.977650 353 3378ft 115kts
01-Oct-23 13:48 35.302173 -118.981115 357 2920ft 113kts
01-Oct-23 13:49 35.333541 -118.981947 356 2624ft 110kts
01-Oct-23 13:50 35.364436 -118.987015 348 2524ft 111kts
01-Oct-23 13:51 35.390845 -119.004238 317 1938ft 96kts
01-Oct-23 13:52 35.408575 -119.026366 317 1484ft 76kts
01-Oct-23 13:53 35.424851 -119.043497 322 951ft 69kts
01-Oct-23 13:54 35.437073 -119.060021 319 490ft 38kts
01-Oct-23 13:55 35.440636 -119.062934 38 497ft 0kts
01-Oct-23 13:56 35.437215 -119.057990 136 495ft 33kts
01-Oct-23 13:57 35.431163 -119.050680 135 492ft 30kts
01-Oct-23 13:58 35.425915 -119.044532 175 480ft 13kts
01-Oct-23 13:59 35.425737 -119.044656 250 479ft 0kts
01-Oct-23 14:00 35.425737 -119.044656 250 479ft 0kts
01-Oct-23 14:01 35.425723 -119.045085 251 478ft 4kts

Navigation Log

Ident Type
Flight plan parsing failed, navigation log unavailable